createdAt,value
2024-01-06T00:01:17.990Z,-20.31
2024-01-06T00:03:45.158Z,-20.24
2024-01-06T00:06:16.021Z,-20.18
2024-01-06T00:08:42.945Z,-20.13
2024-01-06T00:11:10.875Z,-20.16
2024-01-06T00:13:37.839Z,-20.11
2024-01-06T00:16:05.091Z,-20.13
2024-01-06T00:18:32.182Z,-20.12
2024-01-06T00:20:59.186Z,-20.08
2024-01-06T00:23:26.005Z,-20.04
2024-01-06T00:25:52.913Z,-20.04
2024-01-06T00:28:19.745Z,-19.98
2024-01-06T00:30:46.994Z,-19.92
2024-01-06T00:33:14.258Z,-19.89
2024-01-06T00:35:41.870Z,-19.91
2024-01-06T00:38:08.914Z,-19.88
2024-01-06T00:40:35.822Z,-19.90
2024-01-06T00:43:02.677Z,-19.95
2024-01-06T00:45:29.672Z,-19.95
2024-01-06T00:47:56.593Z,-19.82
2024-01-06T00:50:23.490Z,-19.80
2024-01-06T00:52:53.584Z,-19.71
2024-01-06T00:55:21.717Z,-19.66
2024-01-06T00:57:49.001Z,-19.68
2024-01-06T01:00:16.620Z,-19.67
2024-01-06T01:02:43.565Z,-19.61
2024-01-06T01:05:10.596Z,-19.57
2024-01-06T01:07:37.770Z,-19.62
2024-01-06T01:10:06.041Z,-19.54
2024-01-06T01:12:33.141Z,-19.51
2024-01-06T01:15:00.059Z,-19.44
2024-01-06T01:17:27.028Z,-19.39
2024-01-06T01:19:54.037Z,-19.36
2024-01-06T01:22:21.070Z,-19.39
2024-01-06T01:24:48.373Z,-19.37
2024-01-06T01:27:15.293Z,-19.33
2024-01-06T01:29:42.147Z,-19.34
2024-01-06T01:32:09.201Z,-19.38
2024-01-06T01:34:36.362Z,-19.48
2024-01-06T01:37:03.480Z,-19.41
2024-01-06T01:39:30.393Z,-19.34
2024-01-06T01:41:57.369Z,-19.36
2024-01-06T01:44:24.283Z,-19.31
2024-01-06T01:46:51.221Z,-19.30
2024-01-06T01:49:18.279Z,-19.32
2024-01-06T01:51:45.980Z,-19.34
2024-01-06T01:54:13.194Z,-19.40
2024-01-06T01:56:41.396Z,-19.33
2024-01-06T01:59:13.428Z,-19.33
2024-01-06T02:01:41.921Z,-19.32
2024-01-06T02:04:09.542Z,-19.32
2024-01-06T02:06:36.483Z,-19.40
2024-01-06T02:09:03.751Z,-19.43
2024-01-06T02:11:30.658Z,-19.37
2024-01-06T02:13:57.585Z,-19.41
2024-01-06T02:16:24.623Z,-19.37
2024-01-06T02:18:51.867Z,-19.31
2024-01-06T02:21:21.289Z,-19.50
2024-01-06T02:23:48.914Z,-19.34
2024-01-06T02:26:16.239Z,-19.48
2024-01-06T02:28:46.130Z,-19.26
2024-01-06T02:31:13.141Z,-19.22
2024-01-06T02:33:40.336Z,-19.17
2024-01-06T02:36:07.834Z,-19.20
2024-01-06T02:38:34.698Z,-19.19
2024-01-06T02:41:01.747Z,-19.19
2024-01-06T02:43:28.632Z,-19.28
2024-01-06T02:45:55.605Z,-19.29
2024-01-06T02:48:22.759Z,-19.33
2024-01-06T02:50:49.706Z,-19.35
2024-01-06T02:53:16.609Z,-19.21
2024-01-06T02:55:43.464Z,-19.18
2024-01-06T02:58:10.478Z,-19.13
2024-01-06T03:00:37.525Z,-19.16
2024-01-06T03:03:04.909Z,-19.16
2024-01-06T03:05:32.494Z,-19.22
2024-01-06T03:07:59.672Z,-19.24
2024-01-06T03:10:27.208Z,-19.20
2024-01-06T03:12:54.128Z,-19.18
2024-01-06T03:15:21.053Z,-19.17
2024-01-06T03:17:48.800Z,-19.17
2024-01-06T03:20:15.763Z,-19.16
2024-01-06T03:22:42.624Z,-19.15
2024-01-06T03:25:10.070Z,-19.13
2024-01-06T03:27:37.000Z,-19.12
2024-01-06T03:30:04.761Z,-19.15
2024-01-06T03:32:31.975Z,-19.17
2024-01-06T03:34:58.855Z,-19.16
2024-01-06T03:37:26.090Z,-19.17
2024-01-06T03:39:53.090Z,-19.18
2024-01-06T03:42:19.969Z,-19.44
2024-01-06T03:44:46.946Z,-19.21
2024-01-06T03:47:13.880Z,-19.28
2024-01-06T03:49:40.881Z,-19.25
2024-01-06T03:52:07.948Z,-19.21
2024-01-06T03:54:34.973Z,-19.25
2024-01-06T03:57:01.925Z,-19.23
2024-01-06T03:59:28.836Z,-19.21
2024-01-06T04:01:55.689Z,-19.21
2024-01-06T04:04:23.204Z,-19.29
2024-01-06T04:06:50.157Z,-19.30
2024-01-06T04:09:19.017Z,-19.27
2024-01-06T04:11:46.144Z,-19.26
2024-01-06T04:14:12.986Z,-19.19
2024-01-06T04:16:39.943Z,-19.16
2024-01-06T04:19:09.018Z,-19.16
2024-01-06T04:21:35.921Z,-19.14
2024-01-06T04:24:02.843Z,-19.14
2024-01-06T04:26:29.660Z,-19.18
2024-01-06T04:28:56.613Z,-19.21
2024-01-06T04:31:23.610Z,-19.21
2024-01-06T04:33:50.777Z,-19.21
2024-01-06T04:36:17.711Z,-19.17
2024-01-06T04:38:44.570Z,-19.14
2024-01-06T04:41:11.453Z,-19.13
2024-01-06T04:43:38.464Z,-19.13
2024-01-06T04:46:05.343Z,-19.12
2024-01-06T04:48:32.410Z,-19.12
2024-01-06T04:50:59.533Z,-19.09
2024-01-06T04:53:26.376Z,-19.06
2024-01-06T04:55:53.309Z,-19.04
2024-01-06T04:58:20.307Z,-19.04
2024-01-06T05:00:47.503Z,-19.01
2024-01-06T05:03:14.562Z,-19.06
2024-01-06T05:05:41.576Z,-19.12
2024-01-06T05:08:08.502Z,-19.08
2024-01-06T05:10:35.379Z,-19.02
2024-01-06T05:13:02.257Z,-18.97
2024-01-06T05:15:29.373Z,-18.93
2024-01-06T05:17:56.922Z,-18.89
2024-01-06T05:20:24.204Z,-18.90
2024-01-06T05:22:51.046Z,-18.88
2024-01-06T05:25:18.021Z,-18.84
2024-01-06T05:27:44.989Z,-18.84
2024-01-06T05:30:12.320Z,-18.86
2024-01-06T05:32:39.764Z,-18.86
2024-01-06T05:35:07.296Z,-18.83
2024-01-06T05:37:34.444Z,-18.80
2024-01-06T05:40:04.167Z,-18.79
2024-01-06T05:42:31.147Z,-18.81
2024-01-06T05:44:58.202Z,-18.87
2024-01-06T05:47:25.114Z,-19.07
2024-01-06T05:49:52.073Z,-18.88
2024-01-06T05:52:18.969Z,-18.88
2024-01-06T05:54:46.013Z,-18.88
2024-01-06T05:57:13.181Z,-18.84
2024-01-06T05:59:40.553Z,-18.85
2024-01-06T06:02:07.476Z,-18.87
2024-01-06T06:04:34.567Z,-18.90
2024-01-06T06:07:02.658Z,-18.88
2024-01-06T06:09:30.346Z,-18.81
2024-01-06T06:11:57.273Z,-18.78
2024-01-06T06:14:26.565Z,-18.72
2024-01-06T06:16:55.010Z,-18.68
2024-01-06T06:19:22.012Z,-18.68
2024-01-06T06:21:49.086Z,-18.70
2024-01-06T06:24:16.116Z,-18.68
2024-01-06T06:26:42.967Z,-18.64
2024-01-06T06:29:09.966Z,-18.61
2024-01-06T06:31:37.107Z,-18.58
2024-01-06T06:34:08.273Z,-18.54
2024-01-06T06:36:36.409Z,-18.47
2024-01-06T06:39:05.512Z,-18.65
2024-01-06T06:41:32.465Z,-18.40
2024-01-06T06:43:59.345Z,-18.36
2024-01-06T06:46:26.272Z,-18.37
2024-01-06T06:48:53.236Z,-18.31
2024-01-06T06:51:20.433Z,-18.31
2024-01-06T06:53:49.012Z,-18.29
2024-01-06T06:56:18.756Z,-18.23
2024-01-06T06:58:45.849Z,-18.24
2024-01-06T07:01:16.441Z,-18.23
2024-01-06T07:03:43.522Z,-18.26
2024-01-06T07:06:13.706Z,-18.25
2024-01-06T07:08:40.565Z,-18.26
2024-01-06T07:11:07.428Z,-18.19
2024-01-06T07:13:34.281Z,-18.22
2024-01-06T07:16:11.514Z,-18.13
2024-01-06T07:18:45.225Z,-18.04
2024-01-06T07:21:14.040Z,-18.04
2024-01-06T07:23:41.332Z,-18.01
2024-01-06T07:26:09.552Z,-17.91
2024-01-06T07:28:36.532Z,-18.05
2024-01-06T07:31:03.597Z,-17.82
2024-01-06T07:33:30.711Z,-17.77
2024-01-06T07:35:57.717Z,-17.72
2024-01-06T07:38:24.611Z,-17.74
2024-01-06T07:40:51.441Z,-17.65
2024-01-06T07:43:18.665Z,-17.58
2024-01-06T07:45:45.647Z,-17.55
2024-01-06T07:48:12.760Z,-17.50
2024-01-06T07:50:39.670Z,-17.46
2024-01-06T07:53:06.620Z,-17.50
2024-01-06T07:55:33.574Z,-17.48
2024-01-06T07:58:00.523Z,-17.39
2024-01-06T08:00:27.569Z,-17.37
2024-01-06T08:02:54.519Z,-17.34
2024-01-06T08:05:21.412Z,-17.32
2024-01-06T08:07:48.402Z,-17.27
2024-01-06T08:10:15.322Z,-17.24
2024-01-06T08:12:42.277Z,-17.16
2024-01-06T08:15:10.664Z,-17.13
2024-01-06T08:17:38.764Z,-17.17
2024-01-06T08:20:06.278Z,-17.12
2024-01-06T08:22:33.141Z,-17.07
2024-01-06T08:25:00.114Z,-17.06
2024-01-06T08:27:27.163Z,-16.94
2024-01-06T08:29:54.134Z,-16.86
2024-01-06T08:32:21.010Z,-16.85
2024-01-06T08:34:48.621Z,-16.79
2024-01-06T08:37:15.611Z,-16.89
2024-01-06T08:39:42.608Z,-16.71
2024-01-06T08:42:09.478Z,-16.73
2024-01-06T08:44:36.340Z,-16.77
2024-01-06T08:47:04.215Z,-16.89
2024-01-06T08:49:31.269Z,-16.84
2024-01-06T08:51:58.677Z,-16.89
2024-01-06T08:54:25.700Z,-16.88
2024-01-06T08:56:52.552Z,-16.91
2024-01-06T08:59:19.498Z,-16.83
2024-01-06T09:01:50.175Z,-16.77
2024-01-06T09:04:17.413Z,-16.73
2024-01-06T09:06:44.474Z,-16.71
2024-01-06T09:09:12.162Z,-16.60
2024-01-06T09:11:39.285Z,-16.55
2024-01-06T09:14:06.150Z,-16.53
2024-01-06T09:16:33.074Z,-16.60
2024-01-06T09:19:00.044Z,-16.56
2024-01-06T09:21:27.491Z,-16.58
2024-01-06T09:23:54.327Z,-16.56
2024-01-06T09:26:21.448Z,-16.69
2024-01-06T09:28:49.134Z,-16.45
2024-01-06T09:31:16.214Z,-16.38
2024-01-06T09:33:43.449Z,-16.34
2024-01-06T09:36:13.668Z,-16.35
2024-01-06T09:38:40.647Z,-16.33
2024-01-06T09:41:07.628Z,-16.33
2024-01-06T09:43:35.048Z,-16.30
2024-01-06T09:46:11.748Z,-16.20
2024-01-06T09:48:43.280Z,-16.29
2024-01-06T09:51:13.474Z,-16.28
2024-01-06T09:53:58.209Z,-16.32
2024-01-06T09:56:26.648Z,-16.26
2024-01-06T09:58:53.868Z,-16.28
2024-01-06T10:01:21.175Z,-16.36
2024-01-06T10:03:49.366Z,-16.30
2024-01-06T10:06:17.276Z,-16.43
2024-01-06T10:08:45.400Z,-16.33
2024-01-06T10:11:12.291Z,-16.28
2024-01-06T10:13:39.742Z,-16.22
2024-01-06T10:16:09.781Z,-16.18
2024-01-06T10:18:37.236Z,-16.19
2024-01-06T10:21:07.800Z,-16.11
2024-01-06T10:23:35.425Z,-16.07
2024-01-06T10:26:05.251Z,-16.07
2024-01-06T10:28:34.099Z,-16.09
2024-01-06T10:31:01.385Z,-16.07
2024-01-06T10:33:28.656Z,-16.00
2024-01-06T10:35:58.863Z,-15.93
2024-01-06T10:38:27.523Z,-15.90
2024-01-06T10:41:01.381Z,-15.82
2024-01-06T10:43:32.347Z,-15.78
2024-01-06T10:46:01.194Z,-16.08
2024-01-06T10:48:33.254Z,-15.91
2024-01-06T10:51:00.483Z,-15.96
2024-01-06T10:53:28.333Z,-16.04
2024-01-06T10:55:56.656Z,-15.93
2024-01-06T10:58:23.779Z,-15.98
2024-01-06T11:00:51.027Z,-15.96
2024-01-06T11:03:19.324Z,-15.92
2024-01-06T11:05:46.845Z,-15.87
2024-01-06T11:08:13.992Z,-15.90
2024-01-06T11:10:41.644Z,-15.97
2024-01-06T11:13:23.969Z,-16.21
2024-01-06T11:15:56.137Z,-16.01
2024-01-06T11:18:40.468Z,-15.96
2024-01-06T11:21:18.926Z,-15.89
2024-01-06T11:23:46.592Z,-15.91
2024-01-06T11:26:15.664Z,-15.89
2024-01-06T11:28:49.509Z,-16.06
2024-01-06T11:31:17.470Z,-15.91
2024-01-06T11:33:45.659Z,-15.92
2024-01-06T11:36:13.579Z,-16.00
2024-01-06T11:38:41.279Z,-15.99
2024-01-06T11:41:09.275Z,-16.21
2024-01-06T11:43:40.436Z,-16.00
2024-01-06T11:46:08.857Z,-16.03
2024-01-06T11:48:36.121Z,-16.07
2024-01-06T11:51:04.687Z,-16.21
2024-01-06T11:53:31.858Z,-16.07
2024-01-06T11:55:58.669Z,-16.19
2024-01-06T11:58:26.500Z,-16.29
2024-01-06T12:00:58.899Z,-16.30
2024-01-06T12:03:27.855Z,-16.32
2024-01-06T12:06:04.526Z,-16.32
2024-01-06T12:08:31.600Z,-16.27
2024-01-06T12:11:05.216Z,-16.28
2024-01-06T12:13:32.507Z,-16.37
2024-01-06T12:15:59.508Z,-16.32
2024-01-06T12:18:26.860Z,-16.33
2024-01-06T12:20:55.755Z,-16.35
2024-01-06T12:23:28.990Z,-16.40
2024-01-06T12:25:57.025Z,-16.38
2024-01-06T12:28:24.436Z,-16.42
2024-01-06T12:30:51.439Z,-16.43
2024-01-06T12:33:18.698Z,-16.39
2024-01-06T12:35:45.729Z,-16.37
2024-01-06T12:38:12.728Z,-16.46
2024-01-06T12:40:39.865Z,-16.43
2024-01-06T12:43:07.475Z,-16.64
2024-01-06T12:45:34.721Z,-16.50
2024-01-06T12:48:01.761Z,-16.48
2024-01-06T12:50:28.725Z,-16.45
2024-01-06T12:52:55.623Z,-16.44
2024-01-06T12:55:22.508Z,-16.45
2024-01-06T12:57:49.455Z,-16.45
2024-01-06T13:00:17.771Z,-16.41
2024-01-06T13:02:44.644Z,-16.62
2024-01-06T13:05:11.701Z,-16.42
2024-01-06T13:07:40.980Z,-16.48
2024-01-06T13:10:08.553Z,-16.38
2024-01-06T13:12:35.673Z,-16.35
2024-01-06T13:15:02.742Z,-16.30
2024-01-06T13:17:30.903Z,-16.32
2024-01-06T13:20:01.482Z,-16.37
2024-01-06T13:22:29.958Z,-16.38
2024-01-06T13:24:56.872Z,-16.37
2024-01-06T13:27:24.093Z,-16.35
2024-01-06T13:29:51.000Z,-16.35
2024-01-06T13:32:19.393Z,-16.40
2024-01-06T13:34:46.462Z,-16.48
2024-01-06T13:37:13.547Z,-16.51
2024-01-06T13:39:40.394Z,-16.50
2024-01-06T13:42:07.684Z,-16.52
2024-01-06T13:44:34.964Z,-16.46
2024-01-06T13:47:02.053Z,-16.46
2024-01-06T13:49:29.329Z,-16.42
2024-01-06T13:51:56.526Z,-16.39
2024-01-06T13:54:23.860Z,-16.37
2024-01-06T13:56:50.832Z,-16.34
2024-01-06T13:59:18.083Z,-16.36
2024-01-06T14:01:45.256Z,-16.33
2024-01-06T14:04:12.369Z,-16.31
2024-01-06T14:06:41.158Z,-16.30
2024-01-06T14:09:08.165Z,-16.32
2024-01-06T14:11:35.623Z,-16.37
2024-01-06T14:14:02.574Z,-16.49
2024-01-06T14:16:29.530Z,-16.48
2024-01-06T14:18:56.863Z,-16.47
2024-01-06T14:21:24.207Z,-16.48
2024-01-06T14:23:51.588Z,-16.49
2024-01-06T14:26:21.477Z,-16.53
2024-01-06T14:28:49.668Z,-16.52
2024-01-06T14:31:16.966Z,-16.55
2024-01-06T14:33:44.165Z,-16.53
2024-01-06T14:36:11.154Z,-16.53
2024-01-06T14:38:38.162Z,-16.52
2024-01-06T14:41:05.002Z,-16.53
2024-01-06T14:43:31.931Z,-16.51
2024-01-06T14:45:59.101Z,-16.52
2024-01-06T14:48:26.292Z,-16.51
2024-01-06T14:50:53.307Z,-16.53
2024-01-06T14:53:20.335Z,-16.54
2024-01-06T14:55:47.351Z,-16.49
2024-01-06T14:58:14.168Z,-16.50
2024-01-06T15:00:41.288Z,-16.49
2024-01-06T15:03:08.281Z,-16.45
2024-01-06T15:05:35.244Z,-16.43
2024-01-06T15:08:02.746Z,-16.41
2024-01-06T15:10:29.815Z,-16.42
2024-01-06T15:12:56.878Z,-16.44
2024-01-06T15:15:23.938Z,-16.47
2024-01-06T15:17:51.361Z,-16.46
2024-01-06T15:20:18.409Z,-16.42
2024-01-06T15:22:45.445Z,-16.46
2024-01-06T15:25:12.738Z,-16.45
2024-01-06T15:27:39.874Z,-16.43
2024-01-06T15:30:10.850Z,-16.40
2024-01-06T15:32:38.557Z,-16.36
2024-01-06T15:35:07.037Z,-16.39
2024-01-06T15:37:33.988Z,-16.41
2024-01-06T15:40:01.076Z,-16.43
2024-01-06T15:42:28.052Z,-16.41
2024-01-06T15:44:55.035Z,-16.44
2024-01-06T15:47:22.194Z,-16.44
2024-01-06T15:49:49.307Z,-16.43
2024-01-06T15:52:16.382Z,-16.43
2024-01-06T15:54:43.909Z,-16.41
2024-01-06T15:57:11.189Z,-16.40
2024-01-06T15:59:38.034Z,-16.48
2024-01-06T16:02:05.045Z,-16.53
2024-01-06T16:04:32.297Z,-16.50
2024-01-06T16:07:00.006Z,-16.46
2024-01-06T16:09:27.247Z,-16.48
2024-01-06T16:11:57.148Z,-16.50
2024-01-06T16:14:29.413Z,-16.48
2024-01-06T16:16:58.089Z,-16.49
2024-01-06T16:19:25.196Z,-16.57
2024-01-06T16:21:59.292Z,-16.62
2024-01-06T16:24:31.420Z,-16.69
2024-01-06T16:26:58.663Z,-16.69
2024-01-06T16:29:26.030Z,-16.66
2024-01-06T16:31:52.996Z,-16.65
2024-01-06T16:34:20.037Z,-16.67
2024-01-06T16:36:46.931Z,-16.70
2024-01-06T16:39:14.170Z,-16.72
2024-01-06T16:41:41.305Z,-16.77
2024-01-06T16:44:09.605Z,-16.80
2024-01-06T16:46:36.544Z,-16.82
2024-01-06T16:49:03.579Z,-16.79
2024-01-06T16:51:30.522Z,-16.84
2024-01-06T16:53:57.448Z,-16.80
2024-01-06T16:56:24.873Z,-16.82
2024-01-06T16:58:51.738Z,-16.87
2024-01-06T17:01:18.832Z,-16.89
2024-01-06T17:03:45.860Z,-16.95
2024-01-06T17:06:13.514Z,-16.94
2024-01-06T17:08:42.096Z,-16.97
2024-01-06T17:11:09.559Z,-16.95
2024-01-06T17:13:36.734Z,-16.94
2024-01-06T17:16:04.056Z,-17.12
2024-01-06T17:18:31.123Z,-16.91
2024-01-06T17:20:58.329Z,-16.91
2024-01-06T17:23:25.918Z,-16.89
2024-01-06T17:25:52.978Z,-16.91
2024-01-06T17:28:19.831Z,-16.89
2024-01-06T17:30:46.935Z,-16.87
2024-01-06T17:33:14.222Z,-16.91
2024-01-06T17:35:41.180Z,-16.93
2024-01-06T17:38:08.100Z,-16.93
2024-01-06T17:40:35.746Z,-16.96
2024-01-06T17:43:02.748Z,-16.95
2024-01-06T17:45:29.689Z,-17.13
2024-01-06T17:47:56.679Z,-16.96
2024-01-06T17:50:23.645Z,-16.98
2024-01-06T17:52:50.557Z,-16.98
2024-01-06T17:55:17.633Z,-17.05
2024-01-06T17:57:44.629Z,-17.13
2024-01-06T18:00:14.524Z,-17.13
2024-01-06T18:02:44.553Z,-17.23
2024-01-06T18:05:12.129Z,-17.24
2024-01-06T18:07:39.434Z,-17.26
2024-01-06T18:10:09.675Z,-17.34
2024-01-06T18:12:41.754Z,-17.39
2024-01-06T18:15:09.068Z,-17.41
2024-01-06T18:17:36.822Z,-17.41
2024-01-06T18:20:05.113Z,-17.46
2024-01-06T18:22:32.431Z,-17.47
2024-01-06T18:24:59.438Z,-17.47
2024-01-06T18:27:26.827Z,-17.49
2024-01-06T18:29:53.924Z,-17.52
2024-01-06T18:32:20.983Z,-17.59
2024-01-06T18:34:48.180Z,-17.60
2024-01-06T18:37:18.714Z,-17.60
2024-01-06T18:39:45.651Z,-17.65
2024-01-06T18:42:17.485Z,-17.64
2024-01-06T18:44:44.593Z,-17.67
2024-01-06T18:47:13.073Z,-17.69
2024-01-06T18:49:40.278Z,-17.72
2024-01-06T18:52:07.393Z,-17.71
2024-01-06T18:54:42.317Z,-17.73
2024-01-06T18:57:13.508Z,-17.77
2024-01-06T18:59:41.585Z,-17.81
2024-01-06T19:02:08.629Z,-17.82
2024-01-06T19:04:35.876Z,-18.09
2024-01-06T19:07:03.247Z,-17.99
2024-01-06T19:09:31.176Z,-17.96
2024-01-06T19:11:59.884Z,-17.99
2024-01-06T19:14:26.824Z,-18.05
2024-01-06T19:16:53.774Z,-18.14
2024-01-06T19:19:22.587Z,-18.15
2024-01-06T19:21:50.780Z,-18.15
2024-01-06T19:24:27.576Z,-18.17
2024-01-06T19:27:00.715Z,-18.22
2024-01-06T19:29:29.738Z,-18.26
2024-01-06T19:31:56.773Z,-18.28
2024-01-06T19:34:24.148Z,-18.28
2024-01-06T19:36:51.214Z,-18.25
2024-01-06T19:39:18.368Z,-18.29
2024-01-06T19:41:45.355Z,-18.26
2024-01-06T19:44:12.466Z,-18.21
2024-01-06T19:46:40.301Z,-18.14
2024-01-06T19:49:07.548Z,-18.08
2024-01-06T19:51:34.618Z,-18.06
2024-01-06T19:54:01.559Z,-18.01
2024-01-06T19:56:28.682Z,-18.07
2024-01-06T19:58:55.617Z,-18.04
2024-01-06T20:01:22.528Z,-18.00
2024-01-06T20:03:50.304Z,-18.06
2024-01-06T20:06:17.269Z,-17.94
2024-01-06T20:08:44.261Z,-17.90
2024-01-06T20:11:11.199Z,-17.83
2024-01-06T20:13:38.094Z,-17.81
2024-01-06T20:16:05.417Z,-17.78
2024-01-06T20:18:33.084Z,-17.75
2024-01-06T20:21:00.583Z,-17.93
2024-01-06T20:23:27.450Z,-17.65
2024-01-06T20:25:54.314Z,-17.63
2024-01-06T20:28:21.234Z,-17.59
2024-01-06T20:30:48.607Z,-17.65
2024-01-06T20:33:17.115Z,-17.60
2024-01-06T20:35:44.525Z,-17.53
2024-01-06T20:38:11.405Z,-17.49
2024-01-06T20:40:38.927Z,-17.46
2024-01-06T20:43:06.285Z,-17.45
2024-01-06T20:45:33.234Z,-17.46
2024-01-06T20:48:00.489Z,-17.56
2024-01-06T20:50:27.380Z,-17.49
2024-01-06T20:52:54.324Z,-17.45
2024-01-06T20:55:21.457Z,-17.43
2024-01-06T20:57:49.548Z,-17.41
2024-01-06T21:00:19.731Z,-17.39
2024-01-06T21:02:46.917Z,-17.37
2024-01-06T21:05:14.040Z,-17.37
2024-01-06T21:07:42.742Z,-17.33
2024-01-06T21:10:11.922Z,-17.35
2024-01-06T21:12:38.845Z,-17.40
2024-01-06T21:15:06.067Z,-17.38
2024-01-06T21:17:32.994Z,-17.41
2024-01-06T21:20:01.668Z,-17.40
2024-01-06T21:22:31.750Z,-17.35
2024-01-06T21:24:59.046Z,-17.35
2024-01-06T21:27:26.029Z,-17.35
2024-01-06T21:29:52.988Z,-17.40
2024-01-06T21:32:19.906Z,-17.40
2024-01-06T21:34:46.966Z,-17.41
2024-01-06T21:37:13.902Z,-17.53
2024-01-06T21:39:40.911Z,-17.46
2024-01-06T21:42:07.831Z,-17.48
2024-01-06T21:44:34.713Z,-17.47
2024-01-06T21:47:04.115Z,-17.61
2024-01-06T21:49:31.632Z,-17.50
2024-01-06T21:51:58.692Z,-17.53
2024-01-06T21:54:25.723Z,-17.53
2024-01-06T21:56:52.628Z,-17.60
2024-01-06T21:59:19.494Z,-17.72
2024-01-06T22:01:46.550Z,-17.74
2024-01-06T22:04:13.855Z,-17.96
2024-01-06T22:06:40.938Z,-17.77
2024-01-06T22:09:11.483Z,-17.76
2024-01-06T22:11:40.450Z,-17.78
2024-01-06T22:14:07.391Z,-17.79
2024-01-06T22:16:34.258Z,-17.80
2024-01-06T22:19:01.265Z,-17.87
2024-01-06T22:21:30.732Z,-17.93
2024-01-06T22:23:59.742Z,-18.00
2024-01-06T22:26:27.276Z,-18.07
2024-01-06T22:28:54.080Z,-18.13
2024-01-06T22:31:21.097Z,-18.20
2024-01-06T22:33:48.196Z,-18.30
2024-01-06T22:36:15.131Z,-18.34
2024-01-06T22:38:48.965Z,-18.39
2024-01-06T22:41:22.072Z,-18.47
2024-01-06T22:43:48.931Z,-18.55
2024-01-06T22:46:15.969Z,-18.60
2024-01-06T22:48:43.054Z,-18.58
2024-01-06T22:51:10.368Z,-18.58
2024-01-06T22:53:37.358Z,-18.63
2024-01-06T22:56:04.639Z,-18.69
2024-01-06T22:58:34.340Z,-18.73
2024-01-06T23:01:01.431Z,-18.79
2024-01-06T23:03:28.777Z,-18.92
2024-01-06T23:05:55.793Z,-18.84
2024-01-06T23:08:22.698Z,-18.90
2024-01-06T23:10:49.926Z,-18.96
2024-01-06T23:13:16.862Z,-18.98
2024-01-06T23:15:44.974Z,-19.02
2024-01-06T23:18:12.037Z,-19.04
2024-01-06T23:20:39.590Z,-19.10
2024-01-06T23:23:06.435Z,-19.12
2024-01-06T23:25:33.242Z,-19.18
2024-01-06T23:28:00.255Z,-19.23
2024-01-06T23:30:27.433Z,-19.32
2024-01-06T23:32:54.417Z,-19.37
2024-01-06T23:35:21.422Z,-19.47
2024-01-06T23:37:55.058Z,-19.50
2024-01-06T23:40:23.674Z,-19.66
2024-01-06T23:42:50.428Z,-19.54
2024-01-06T23:45:17.597Z,-19.55
2024-01-06T23:47:44.870Z,-19.56
2024-01-06T23:50:11.768Z,-19.63
2024-01-06T23:52:38.714Z,-19.67
2024-01-06T23:55:05.931Z,-19.73
2024-01-06T23:57:32.925Z,-19.81
2024-01-06T23:59:59.800Z,-19.83
